This is the latest recevied weather packets stored in our database for station/object DK9XR-14. If no packets are shown the sender has not sent any weather packets the latest 10 day(s).
| Time | Temp. | Humidity | Pressure | Rain* | Wind** | Luminosity | Snow |
|---|---|---|---|---|---|---|---|
| 1777751954 | 15° C | 54% | 1019.1 hPa | 0 mm | - | - | - |
| 1777751654 | 15° C | 54% | 1019.1 hPa | 0 mm | - | - | - |
| 1777751354 | 15° C | 53% | 1019 hPa | 0 mm | - | - | - |
| 1777751054 | 15.56° C | 51% | 1019 hPa | 0 mm | - | - | - |
| 1777750753 | 15.56° C | 51% | 1018.8 hPa | 0 mm | - | - | - |
| 1777750457 | 16.11° C | 50% | 1019 hPa | 0 mm | - | - | - |
| 1777750148 | 16.11° C | 50% | 1018.7 hPa | 0 mm | - | - | - |
| 1777749849 | 16.11° C | 48% | 1018.8 hPa | 0 mm | - | - | - |
| 1777749547 | 16.67° C | 47% | 1018.8 hPa | 0 mm | - | - | - |
| 1777749242 | 16.67° C | 47% | 1018.7 hPa | 0 mm | - | - | - |
| 1777748942 | 17.22° C | 47% | 1018.8 hPa | 0 mm | - | - | - |
| 1777748645 | 17.78° C | 46% | 1018.8 hPa | 0 mm | - | - | - |
| 1777748342 | 18.33° C | 45% | 1018.7 hPa | 0 mm | - | - | - |
| 1777748042 | 18.33° C | 44% | 1018.7 hPa | 0 mm | - | - | - |
| 1777747743 | 18.89° C | 41% | 1018.6 hPa | 0 mm | - | - | - |
| 1777747440 | 19.44° C | 40% | 1018.6 hPa | 0 mm | - | - | - |
| 1777747142 | 19.44° C | 41% | 1018.6 hPa | 0 mm | - | - | - |
| 1777746840 | 20° C | 39% | 1018.6 hPa | 0 mm | - | - | - |
| 1777746537 | 21.11° C | 36% | 1018.6 hPa | 0 mm | - | - | - |
| 1777746236 | 22.22° C | 34% | 1018.5 hPa | 0 mm | - | - | - |
| 1777745939 | 22.78° C | 29% | 1018.5 hPa | 0 mm | - | - | - |
| 1777745635 | 22.78° C | 28% | 1018.5 hPa | 0 mm | - | - | - |
| 1777745334 | 23.33° C | 28% | 1018.5 hPa | 0 mm | - | - | - |
| 1777745034 | 23.33° C | 28% | 1018.5 hPa | 0 mm | - | - | - |
| 1777744734 | 23.33° C | 27% | 1018.5 hPa | 0 mm | - | - | - |
* Rain latest hour (hover to see other rain measurements)
** Current wind speed in m/s (hover to see current wind gust speed)